createdAt,value
2019-02-22T00:02:31.375Z,21.07
2019-02-22T00:04:59.391Z,19.70
2019-02-22T00:07:27.372Z,20.65
2019-02-22T00:09:55.566Z,19.30
2019-02-22T00:12:23.978Z,21.37
2019-02-22T00:14:52.014Z,21.07
2019-02-22T00:17:20.706Z,20.43
2019-02-22T00:19:48.814Z,21.77
2019-02-22T00:22:16.738Z,21.10
2019-02-22T00:24:44.656Z,20.60
2019-02-22T00:27:13.079Z,18.77
2019-02-22T00:29:41.071Z,20.57
2019-02-22T00:32:09.174Z,20.72
2019-02-22T00:34:37.245Z,19.05
2019-02-22T00:37:05.485Z,19.37
2019-02-22T00:39:33.442Z,19.00
2019-02-22T00:42:01.612Z,20.72
2019-02-22T00:44:29.506Z,21.02
2019-02-22T00:46:57.433Z,19.87
2019-02-22T00:49:25.325Z,20.70
2019-02-22T00:51:53.206Z,20.15
2019-02-22T00:54:21.117Z,20.17
2019-02-22T00:56:49.014Z,19.23
2019-02-22T00:59:17.218Z,19.48
2019-02-22T01:01:45.670Z,20.95
2019-02-22T01:04:13.984Z,19.70
2019-02-22T01:06:41.958Z,21.27
2019-02-22T01:09:10.319Z,21.07
2019-02-22T01:11:38.786Z,21.35
2019-02-22T01:14:06.654Z,21.02
2019-02-22T01:16:34.753Z,21.70
2019-02-22T01:19:02.704Z,20.62
2019-02-22T01:21:30.756Z,21.55
2019-02-22T01:23:58.689Z,22.02
2019-02-22T01:26:26.581Z,21.10
2019-02-22T01:28:54.447Z,21.75
2019-02-22T01:31:22.623Z,22.70
2019-02-22T01:33:50.780Z,20.32
2019-02-22T01:36:18.753Z,20.82
2019-02-22T01:38:47.344Z,21.42
2019-02-22T01:41:15.597Z,22.37
2019-02-22T01:43:43.528Z,20.90
2019-02-22T01:46:13.134Z,21.07
2019-02-22T01:48:41.377Z,21.00
2019-02-22T01:51:09.241Z,21.68
2019-02-22T01:53:37.207Z,20.55
2019-02-22T01:56:05.140Z,21.97
2019-02-22T01:58:33.098Z,21.40
2019-02-22T02:01:01.276Z,23.77
2019-02-22T02:03:29.176Z,22.27
2019-02-22T02:05:57.645Z,22.65
2019-02-22T02:08:25.664Z,21.85
2019-02-22T02:10:54.374Z,22.85
2019-02-22T02:13:22.596Z,22.20
2019-02-22T02:15:50.460Z,21.48
2019-02-22T02:18:18.638Z,22.73
2019-02-22T02:20:46.669Z,22.25
2019-02-22T02:23:14.505Z,23.65
2019-02-22T02:25:42.370Z,22.50
2019-02-22T02:28:10.923Z,23.65
2019-02-22T02:30:39.090Z,21.30
2019-02-22T02:33:07.037Z,20.48
2019-02-22T02:35:34.984Z,22.87
2019-02-22T02:38:03.224Z,22.80
2019-02-22T02:40:31.282Z,22.17
2019-02-22T02:42:59.254Z,21.87
2019-02-22T02:45:27.247Z,22.07
2019-02-22T02:47:55.159Z,24.47
2019-02-22T02:50:23.107Z,22.73
2019-02-22T02:52:51.166Z,21.52
2019-02-22T02:55:27.888Z,21.02
2019-02-22T02:57:55.793Z,22.87
2019-02-22T03:00:23.892Z,22.73
2019-02-22T03:02:51.791Z,22.90
2019-02-22T03:05:21.898Z,22.05
2019-02-22T03:07:50.559Z,23.10
2019-02-22T03:10:18.477Z,22.05
2019-02-22T03:12:46.960Z,22.25
2019-02-22T03:15:16.356Z,22.17
2019-02-22T03:17:44.193Z,22.17
2019-02-22T03:20:12.366Z,25.02
2019-02-22T03:22:40.339Z,22.73
2019-02-22T03:25:08.417Z,21.82
2019-02-22T03:27:41.563Z,23.07
2019-02-22T03:30:09.874Z,21.57
2019-02-22T03:32:37.752Z,23.22
2019-02-22T03:35:05.703Z,22.75
2019-02-22T03:37:34.113Z,22.62
2019-02-22T03:40:04.103Z,23.52
2019-02-22T03:42:32.441Z,22.05
2019-02-22T03:45:00.442Z,20.95
2019-02-22T03:47:28.413Z,23.05
2019-02-22T03:49:56.388Z,22.13
2019-02-22T03:52:37.197Z,22.67
2019-02-22T03:55:05.855Z,23.60
2019-02-22T03:57:33.805Z,23.70
2019-02-22T04:00:01.934Z,24.90
2019-02-22T04:02:29.749Z,24.82
2019-02-22T04:04:57.823Z,25.80
2019-02-22T04:07:26.542Z,24.67
2019-02-22T04:09:54.537Z,25.30
2019-02-22T04:12:22.440Z,23.98
2019-02-22T04:14:50.531Z,26.60
2019-02-22T04:17:18.403Z,24.98
2019-02-22T04:19:46.637Z,24.05
2019-02-22T04:22:14.570Z,24.52
2019-02-22T04:24:42.462Z,26.60
2019-02-22T04:27:10.446Z,26.20
2019-02-22T04:29:39.064Z,27.67
2019-02-22T04:32:07.078Z,25.45
2019-02-22T04:34:34.993Z,23.87
2019-02-22T04:37:03.321Z,28.25
2019-02-22T04:39:31.422Z,27.27
2019-02-22T04:41:59.832Z,27.27
2019-02-22T04:44:27.884Z,26.25
2019-02-22T04:46:55.830Z,27.25
2019-02-22T04:49:23.701Z,28.80
2019-02-22T04:51:51.746Z,27.50
2019-02-22T04:54:19.822Z,27.10
2019-02-22T04:56:47.790Z,27.90
2019-02-22T04:59:15.890Z,28.23
2019-02-22T05:01:43.842Z,28.20
2019-02-22T05:04:11.710Z,28.62
2019-02-22T05:06:39.640Z,29.95
2019-02-22T05:09:08.310Z,28.30
2019-02-22T05:11:36.358Z,27.35
2019-02-22T05:14:04.459Z,29.12
2019-02-22T05:16:34.570Z,29.70
2019-02-22T05:19:02.505Z,30.95
2019-02-22T05:21:30.726Z,28.15
2019-02-22T05:23:59.100Z,29.18
2019-02-22T05:26:27.224Z,31.10
2019-02-22T05:28:55.504Z,28.17
2019-02-22T05:31:23.418Z,30.48
2019-02-22T05:33:51.409Z,31.85
2019-02-22T05:36:19.427Z,30.23
2019-02-22T05:38:47.369Z,31.90
2019-02-22T05:41:15.305Z,30.85
2019-02-22T05:43:43.338Z,33.58
2019-02-22T05:46:11.956Z,32.55
2019-02-22T05:48:39.931Z,31.45
2019-02-22T05:51:07.853Z,31.25
2019-02-22T05:53:35.990Z,32.30
2019-02-22T05:56:03.897Z,33.15
2019-02-22T05:58:32.281Z,33.08
2019-02-22T06:01:00.373Z,32.98
2019-02-22T06:03:28.320Z,34.05
2019-02-22T06:05:56.551Z,32.93
2019-02-22T06:08:24.693Z,35.58
2019-02-22T06:10:53.256Z,37.25
2019-02-22T06:13:21.366Z,35.60
2019-02-22T06:15:49.418Z,33.33
2019-02-22T06:18:17.369Z,35.10
2019-02-22T06:20:45.552Z,33.55
2019-02-22T06:23:13.538Z,34.67
2019-02-22T06:25:41.507Z,34.92
2019-02-22T06:28:09.946Z,35.03
2019-02-22T06:30:38.008Z,36.48
2019-02-22T06:33:06.295Z,34.40
2019-02-22T06:35:34.568Z,36.25
2019-02-22T06:38:03.164Z,34.30
2019-02-22T06:40:31.047Z,36.20
2019-02-22T06:42:59.254Z,33.85
2019-02-22T06:45:27.518Z,32.20
2019-02-22T06:47:55.644Z,35.88
2019-02-22T06:50:33.344Z,34.80
2019-02-22T06:52:53.762Z,35.38
2019-02-22T06:55:21.747Z,35.83
2019-02-22T06:57:49.852Z,33.18
2019-02-22T07:00:18.048Z,35.30
2019-02-22T07:02:46.145Z,37.17
2019-02-22T07:05:14.526Z,36.30
2019-02-22T07:07:42.821Z,33.18
2019-02-22T07:10:10.922Z,34.78
2019-02-22T07:12:44.866Z,36.90
2019-02-22T07:15:12.819Z,33.83
2019-02-22T07:17:41.212Z,34.67
2019-02-22T07:20:10.388Z,35.20
2019-02-22T07:22:38.356Z,33.78
2019-02-22T07:25:08.681Z,33.67
2019-02-22T07:27:36.791Z,32.70
2019-02-22T07:30:05.297Z,34.35
2019-02-22T07:32:33.422Z,33.20
2019-02-22T07:35:01.711Z,34.30
2019-02-22T07:37:29.682Z,34.00
2019-02-22T07:39:57.720Z,31.52
2019-02-22T07:42:25.605Z,32.03
2019-02-22T07:44:53.575Z,31.65
2019-02-22T07:47:21.470Z,32.00
2019-02-22T07:49:49.544Z,32.38
2019-02-22T07:52:17.497Z,32.55
2019-02-22T07:54:45.595Z,32.75
2019-02-22T07:57:13.470Z,35.00
2019-02-22T07:59:41.739Z,31.60
2019-02-22T08:02:09.793Z,34.50
2019-02-22T08:04:38.029Z,32.75
2019-02-22T08:07:06.120Z,33.42
2019-02-22T08:09:34.231Z,33.92
2019-02-22T08:12:02.273Z,33.50
2019-02-22T08:14:30.317Z,33.88
2019-02-22T08:16:58.310Z,32.80
2019-02-22T08:19:26.555Z,36.08
2019-02-22T08:21:54.686Z,35.08
2019-02-22T08:24:22.614Z,35.00
2019-02-22T08:26:50.710Z,34.50
2019-02-22T08:29:18.929Z,36.10
2019-02-22T08:31:46.803Z,35.85
2019-02-22T08:34:14.908Z,33.53
2019-02-22T08:36:42.835Z,32.48
2019-02-22T08:39:10.841Z,33.18
2019-02-22T08:41:39.135Z,35.55
2019-02-22T08:44:07.269Z,34.45
2019-02-22T08:46:35.277Z,33.42
2019-02-22T08:49:03.567Z,33.80
2019-02-22T08:51:31.727Z,34.55
2019-02-22T08:54:00.028Z,32.75
2019-02-22T08:56:28.246Z,35.20
2019-02-22T08:58:56.737Z,35.48
2019-02-22T09:01:24.710Z,33.73
2019-02-22T09:03:52.871Z,34.60
2019-02-22T09:06:20.934Z,34.40
2019-02-22T09:08:49.062Z,36.98
2019-02-22T09:11:17.086Z,37.03
2019-02-22T09:13:45.292Z,37.63
2019-02-22T09:16:13.250Z,35.43
2019-02-22T09:18:41.452Z,36.38
2019-02-22T09:21:09.767Z,35.58
2019-02-22T09:23:38.050Z,33.75
2019-02-22T09:26:06.090Z,35.58
2019-02-22T09:28:34.699Z,33.15
2019-02-22T09:31:02.636Z,31.60
2019-02-22T09:33:30.855Z,33.50
2019-02-22T09:35:58.787Z,32.38
2019-02-22T09:38:26.785Z,31.25
2019-02-22T09:40:54.780Z,33.00
2019-02-22T09:43:22.879Z,33.00
2019-02-22T09:45:51.343Z,33.40
2019-02-22T09:48:19.354Z,31.50
2019-02-22T09:50:47.457Z,32.15
2019-02-22T09:53:15.348Z,30.70
2019-02-22T09:55:43.713Z,30.57
2019-02-22T09:58:12.083Z,30.82
2019-02-22T10:00:40.182Z,32.28
2019-02-22T10:03:08.214Z,30.55
2019-02-22T10:05:36.236Z,32.03
2019-02-22T10:08:04.237Z,33.05
2019-02-22T10:10:32.538Z,29.80
2019-02-22T10:13:01.126Z,30.57
2019-02-22T10:15:29.073Z,31.70
2019-02-22T10:17:57.205Z,32.58
2019-02-22T10:20:25.340Z,30.82
2019-02-22T10:22:53.253Z,28.57
2019-02-22T10:25:21.490Z,31.05
2019-02-22T10:27:49.920Z,31.33
2019-02-22T10:30:17.999Z,28.67
2019-02-22T10:32:46.246Z,25.43
2019-02-22T10:35:14.309Z,26.57
2019-02-22T10:37:42.276Z,25.75
2019-02-22T10:40:10.510Z,26.70
2019-02-22T10:42:38.600Z,23.20
2019-02-22T10:45:07.430Z,23.47
2019-02-22T10:47:35.413Z,23.47
2019-02-22T10:50:03.323Z,20.72
2019-02-22T10:52:31.278Z,22.20
2019-02-22T10:54:59.643Z,23.35
2019-02-22T10:57:27.809Z,21.52
2019-02-22T10:59:55.809Z,20.37
2019-02-22T11:02:23.868Z,22.70
2019-02-22T11:04:53.182Z,19.48
2019-02-22T11:07:21.142Z,18.52
2019-02-22T11:09:49.256Z,18.48
2019-02-22T11:12:17.301Z,19.35
2019-02-22T11:14:45.299Z,18.65
2019-02-22T11:17:13.623Z,19.20
2019-02-22T11:19:41.582Z,16.65
2019-02-22T11:22:10.092Z,16.12
2019-02-22T11:24:38.077Z,13.00
2019-02-22T11:27:06.396Z,13.65
2019-02-22T11:29:34.557Z,10.00
2019-02-22T11:32:02.737Z,6.30
2019-02-22T11:34:30.892Z,5.67
2019-02-22T11:36:59.284Z,3.87
2019-02-22T11:39:27.204Z,3.17
2019-02-22T11:41:55.380Z,3.10
2019-02-22T11:44:23.505Z,3.95
2019-02-22T11:46:51.485Z,2.60
2019-02-22T11:49:20.040Z,3.55
2019-02-22T11:51:48.095Z,7.67
2019-02-22T11:54:16.562Z,8.88
2019-02-22T11:56:44.544Z,10.15
2019-02-22T11:59:12.810Z,9.85
2019-02-22T12:01:41.739Z,7.33
2019-02-22T12:04:10.148Z,6.08
2019-02-22T12:06:38.075Z,6.80
2019-02-22T12:09:06.465Z,5.47
2019-02-22T12:11:34.577Z,4.10
2019-02-22T12:14:02.541Z,3.42
2019-02-22T12:16:30.544Z,3.37
2019-02-22T12:18:58.474Z,2.87
2019-02-22T12:21:26.514Z,3.70
2019-02-22T12:23:54.453Z,3.33
2019-02-22T12:26:22.594Z,3.77
2019-02-22T12:28:51.068Z,2.98
2019-02-22T12:31:19.224Z,3.55
2019-02-22T12:33:47.259Z,3.67
2019-02-22T12:36:15.366Z,3.40
2019-02-22T12:38:43.638Z,4.05
2019-02-22T12:41:11.703Z,3.47
2019-02-22T12:43:39.703Z,3.12
2019-02-22T12:46:07.721Z,2.77
2019-02-22T12:48:35.690Z,2.90
2019-02-22T12:51:03.618Z,3.65
2019-02-22T12:53:31.605Z,3.42
2019-02-22T12:55:59.587Z,3.00
2019-02-22T12:58:27.519Z,2.50
2019-02-22T13:00:55.951Z,3.65
2019-02-22T13:03:24.247Z,2.77
2019-02-22T13:05:52.452Z,3.20
2019-02-22T13:08:20.469Z,2.60
2019-02-22T13:10:49.168Z,3.25
2019-02-22T13:13:17.216Z,3.20
2019-02-22T13:15:45.184Z,2.20
2019-02-22T13:18:13.116Z,1.87
2019-02-22T13:20:41.177Z,1.77
2019-02-22T13:23:09.298Z,1.82
2019-02-22T13:25:37.874Z,1.55
2019-02-22T13:28:06.174Z,1.45
2019-02-22T13:30:34.428Z,1.42
2019-02-22T13:33:03.642Z,1.40
2019-02-22T13:35:31.720Z,1.90
2019-02-22T13:37:59.916Z,1.60
2019-02-22T13:40:27.988Z,1.70
2019-02-22T13:42:55.966Z,1.70
2019-02-22T13:45:26.864Z,1.55
2019-02-22T13:47:54.439Z,1.70
2019-02-22T13:50:22.702Z,2.33
2019-02-22T13:52:50.747Z,1.92
2019-02-22T13:55:19.129Z,1.37
2019-02-22T13:57:47.346Z,1.82
2019-02-22T14:00:16.874Z,2.67
2019-02-22T14:02:45.543Z,2.40
2019-02-22T14:05:13.504Z,1.87
2019-02-22T14:07:50.056Z,2.87
2019-02-22T14:10:19.273Z,2.77
2019-02-22T14:12:47.498Z,3.10
2019-02-22T14:15:18.594Z,2.00
2019-02-22T14:17:46.270Z,2.20
2019-02-22T14:20:14.391Z,2.22
2019-02-22T14:22:42.623Z,2.67
2019-02-22T14:25:11.085Z,2.77
2019-02-22T14:27:39.051Z,2.20
2019-02-22T14:30:09.569Z,1.90
2019-02-22T14:32:37.422Z,2.42
2019-02-22T14:35:06.048Z,2.42
2019-02-22T14:37:34.328Z,2.15
2019-02-22T14:40:03.804Z,2.30
2019-02-22T14:42:32.135Z,2.45
2019-02-22T14:45:01.488Z,2.15
2019-02-22T14:47:29.883Z,2.12
2019-02-22T14:49:58.286Z,2.58
2019-02-22T14:52:26.450Z,2.42
2019-02-22T14:54:54.695Z,2.37
2019-02-22T14:57:22.868Z,2.55
2019-02-22T14:59:50.913Z,2.08
2019-02-22T15:02:19.280Z,2.42
2019-02-22T15:04:47.520Z,2.35
2019-02-22T15:07:15.675Z,2.25
2019-02-22T15:09:43.593Z,2.10
2019-02-22T15:12:12.120Z,2.92
2019-02-22T15:14:40.261Z,2.58
2019-02-22T15:17:19.041Z,2.77
2019-02-22T15:19:47.264Z,2.58
2019-02-22T15:22:15.371Z,2.02
2019-02-22T15:24:43.424Z,3.15
2019-02-22T15:27:11.886Z,2.80
2019-02-22T15:29:40.022Z,2.83
2019-02-22T15:32:08.459Z,2.70
2019-02-22T15:34:36.847Z,2.30
2019-02-22T15:37:04.826Z,2.52
2019-02-22T15:39:33.580Z,3.02
2019-02-22T15:42:01.799Z,3.80
2019-02-22T15:44:29.815Z,3.50
2019-02-22T15:46:58.089Z,3.52
2019-02-22T15:49:26.592Z,3.20
2019-02-22T15:51:54.907Z,3.30
2019-02-22T15:54:23.014Z,3.90
2019-02-22T15:56:51.254Z,4.53
2019-02-22T15:59:21.042Z,4.65
2019-02-22T16:01:55.637Z,3.77
2019-02-22T16:04:48.165Z,3.05
2019-02-22T16:07:16.770Z,3.60
2019-02-22T16:09:45.086Z,4.33
2019-02-22T16:12:13.200Z,3.75
2019-02-22T16:14:41.478Z,4.58
2019-02-22T16:17:09.611Z,3.92
2019-02-22T16:19:37.714Z,4.08
2019-02-22T16:22:05.939Z,3.98
2019-02-22T16:24:33.823Z,3.90
2019-02-22T16:27:02.391Z,4.45
2019-02-22T16:29:31.911Z,4.55
2019-02-22T16:32:00.386Z,3.98
2019-02-22T16:34:28.607Z,3.85
2019-02-22T16:36:56.682Z,2.20
2019-02-22T16:39:24.714Z,2.17
2019-02-22T16:41:53.121Z,3.20
2019-02-22T16:44:21.086Z,3.47
2019-02-22T16:46:49.151Z,2.80
2019-02-22T16:49:17.160Z,2.35
2019-02-22T16:51:45.681Z,3.40
2019-02-22T16:54:13.765Z,2.15
2019-02-22T16:56:41.962Z,2.30
2019-02-22T16:59:10.228Z,2.65
2019-02-22T17:01:38.195Z,2.77
2019-02-22T17:04:06.308Z,2.40
2019-02-22T17:06:34.306Z,2.72
2019-02-22T17:09:04.143Z,1.90
2019-02-22T17:11:32.128Z,1.70
2019-02-22T17:13:59.982Z,2.22
2019-02-22T17:16:28.418Z,2.65
2019-02-22T17:18:56.616Z,2.37
2019-02-22T17:21:25.106Z,2.70
2019-02-22T17:23:53.168Z,2.15
2019-02-22T17:26:21.332Z,1.75
2019-02-22T17:28:49.356Z,2.70
2019-02-22T17:31:17.657Z,2.20
2019-02-22T17:33:45.889Z,2.45
2019-02-22T17:36:13.979Z,2.47
2019-02-22T17:38:42.464Z,2.17
2019-02-22T17:41:10.629Z,2.02
2019-02-22T17:43:39.367Z,2.45
2019-02-22T17:46:07.507Z,2.10
2019-02-22T17:48:35.922Z,2.10
2019-02-22T17:51:03.957Z,2.52
2019-02-22T17:53:32.082Z,2.72
2019-02-22T17:56:00.174Z,3.27
2019-02-22T17:58:28.676Z,2.52
2019-02-22T18:00:56.978Z,2.70
2019-02-22T18:03:25.055Z,2.85
2019-02-22T18:05:53.204Z,2.72
2019-02-22T18:08:21.311Z,2.22
2019-02-22T18:10:49.290Z,2.85
2019-02-22T18:13:17.229Z,2.30
2019-02-22T18:15:45.450Z,2.25
2019-02-22T18:18:13.434Z,3.80
2019-02-22T18:20:41.536Z,4.00
2019-02-22T18:23:10.136Z,3.87
2019-02-22T18:25:38.183Z,6.67
2019-02-22T18:28:06.241Z,4.55
2019-02-22T18:30:34.589Z,7.90
2019-02-22T18:33:02.612Z,6.65
2019-02-22T18:35:31.405Z,5.95
2019-02-22T18:37:59.524Z,4.50
2019-02-22T18:40:27.752Z,6.33
2019-02-22T18:42:55.739Z,6.00
2019-02-22T18:45:24.490Z,8.13
2019-02-22T18:47:52.827Z,5.15
2019-02-22T18:50:20.857Z,5.80
2019-02-22T18:52:48.747Z,6.70
2019-02-22T18:55:17.091Z,7.05
2019-02-22T18:57:45.169Z,5.85
2019-02-22T19:00:14.747Z,8.53
2019-02-22T19:02:42.870Z,7.67
2019-02-22T19:05:10.795Z,8.60
2019-02-22T19:07:38.824Z,7.53
2019-02-22T19:10:09.295Z,7.40
2019-02-22T19:12:39.084Z,8.00
2019-02-22T19:15:09.965Z,8.15
2019-02-22T19:17:38.701Z,7.22
2019-02-22T19:20:09.982Z,6.85
2019-02-22T19:22:38.126Z,8.28
2019-02-22T19:25:06.528Z,8.55
2019-02-22T19:27:36.463Z,8.35
2019-02-22T19:30:06.706Z,9.75
2019-02-22T19:32:34.822Z,16.07
2019-02-22T19:35:03.406Z,10.10
2019-02-22T19:37:31.521Z,7.83
2019-02-22T19:39:59.558Z,6.80
2019-02-22T19:42:27.693Z,7.72
2019-02-22T19:44:56.074Z,6.58
2019-02-22T19:47:24.185Z,8.58
2019-02-22T19:49:52.286Z,8.23
2019-02-22T19:52:20.269Z,9.70
2019-02-22T19:54:48.485Z,8.05
2019-02-22T19:57:16.521Z,7.45
2019-02-22T19:59:45.262Z,7.10
2019-02-22T20:02:13.482Z,8.55
2019-02-22T20:04:41.638Z,9.15
2019-02-22T20:07:09.652Z,9.65
2019-02-22T20:09:37.684Z,8.70
2019-02-22T20:12:05.651Z,10.58
2019-02-22T20:14:33.752Z,8.00
2019-02-22T20:17:02.305Z,10.45
2019-02-22T20:19:30.280Z,9.05
2019-02-22T20:21:58.338Z,8.90
2019-02-22T20:24:26.292Z,11.28
2019-02-22T20:26:54.388Z,7.33
2019-02-22T20:29:22.404Z,6.65
2019-02-22T20:31:50.758Z,5.83
2019-02-22T20:34:18.714Z,4.40
2019-02-22T20:36:46.684Z,7.50
2019-02-22T20:39:15.032Z,3.35
2019-02-22T20:41:43.025Z,3.02
2019-02-22T20:44:11.356Z,4.05
2019-02-22T20:46:39.446Z,4.35
2019-02-22T20:49:08.158Z,4.53
2019-02-22T20:51:36.170Z,2.87
2019-02-22T20:54:04.373Z,3.40
2019-02-22T20:56:38.196Z,4.90
2019-02-22T20:59:06.306Z,3.55
2019-02-22T21:01:34.393Z,2.45
2019-02-22T21:04:02.604Z,3.08
2019-02-22T21:06:31.032Z,1.82
2019-02-22T21:09:01.981Z,2.55
2019-02-22T21:11:30.185Z,2.45
2019-02-22T21:13:58.365Z,2.80
2019-02-22T21:16:26.731Z,3.83
2019-02-22T21:18:55.027Z,2.00
2019-02-22T21:21:23.165Z,2.65
2019-02-22T21:23:52.104Z,2.40
2019-02-22T21:26:20.301Z,2.92
2019-02-22T21:28:48.675Z,2.72
2019-02-22T21:31:16.773Z,3.10
2019-02-22T21:33:45.163Z,3.47
2019-02-22T21:36:13.696Z,3.52
2019-02-22T21:38:42.086Z,3.37
2019-02-22T21:41:10.129Z,2.80
2019-02-22T21:43:38.576Z,3.08
2019-02-22T21:46:06.616Z,3.20
2019-02-22T21:48:34.854Z,3.10
2019-02-22T21:51:02.948Z,3.60
2019-02-22T21:53:31.457Z,4.20
2019-02-22T21:55:59.515Z,3.77
2019-02-22T21:58:27.473Z,4.35
2019-02-22T22:00:56.280Z,4.10
2019-02-22T22:03:24.636Z,4.20
2019-02-22T22:05:52.731Z,4.62
2019-02-22T22:08:20.970Z,3.85
2019-02-22T22:10:48.959Z,3.85
2019-02-22T22:13:17.081Z,4.60
2019-02-22T22:15:45.098Z,4.40
2019-02-22T22:18:13.054Z,4.25
2019-02-22T22:20:40.977Z,4.17
2019-02-22T22:23:08.923Z,4.33
2019-02-22T22:25:36.981Z,4.03
2019-02-22T22:28:05.516Z,5.92
2019-02-22T22:30:33.717Z,4.40
2019-02-22T22:33:02.117Z,4.85
2019-02-22T22:35:30.301Z,4.15
2019-02-22T22:37:58.309Z,4.87
2019-02-22T22:40:26.265Z,5.00
2019-02-22T22:42:54.747Z,4.85
2019-02-22T22:45:23.434Z,4.75
2019-02-22T22:47:51.675Z,5.95
2019-02-22T22:50:19.636Z,5.22
2019-02-22T22:52:47.668Z,5.83
2019-02-22T22:55:16.036Z,4.55
2019-02-22T22:57:44.507Z,5.80
2019-02-22T23:00:27.248Z,5.33
2019-02-22T23:02:55.668Z,6.10
2019-02-22T23:05:24.427Z,6.05
2019-02-22T23:07:52.824Z,4.47
2019-02-22T23:10:20.829Z,5.85
2019-02-22T23:12:49.017Z,5.17
2019-02-22T23:15:17.036Z,6.17
2019-02-22T23:17:45.029Z,5.40
2019-02-22T23:20:13.168Z,6.58
2019-02-22T23:22:41.728Z,6.08
2019-02-22T23:25:10.440Z,6.33
2019-02-22T23:27:38.650Z,7.00
2019-02-22T23:30:06.868Z,5.03
2019-02-22T23:32:34.804Z,5.90
2019-02-22T23:35:02.769Z,6.05
2019-02-22T23:37:31.262Z,5.03
2019-02-22T23:40:07.507Z,6.55
2019-02-22T23:42:35.898Z,5.53
2019-02-22T23:45:04.672Z,7.08
2019-02-22T23:47:32.926Z,5.70
2019-02-22T23:50:01.985Z,6.30
2019-02-22T23:52:29.994Z,6.95
2019-02-22T23:54:58.049Z,7.20
2019-02-22T23:57:26.034Z,6.53
2019-02-22T23:59:54.380Z,5.53
